sensor_id;sensor_type;location;lat;lon;timestamp;pressure;altitude;pressure_sealevel;temperature;humidity
85545;BME280;75982;52.834;13.846;2024-03-22T00:01:48;101547.09;;;6.68;85.73
85545;BME280;75982;52.834;13.846;2024-03-22T00:04:14;101554.88;;;6.68;85.57
85545;BME280;75982;52.834;13.846;2024-03-22T00:06:44;101545.41;;;6.65;86.78
85545;BME280;75982;52.834;13.846;2024-03-22T00:09:13;101538.13;;;6.83;85.77
85545;BME280;75982;52.834;13.846;2024-03-22T00:11:40;101533.84;;;6.80;85.56
85545;BME280;75982;52.834;13.846;2024-03-22T00:14:06;101523.25;;;6.91;85.00
85545;BME280;75982;52.834;13.846;2024-03-22T00:16:32;101524.13;;;6.90;85.07
85545;BME280;75982;52.834;13.846;2024-03-22T00:18:57;101531.81;;;6.93;84.90
85545;BME280;75982;52.834;13.846;2024-03-22T00:21:23;101535.09;;;6.99;85.25
85545;BME280;75982;52.834;13.846;2024-03-22T00:23:49;101525.66;;;6.98;85.08
85545;BME280;75982;52.834;13.846;2024-03-22T00:26:15;101534.50;;;6.90;84.69
85545;BME280;75982;52.834;13.846;2024-03-22T00:28:40;101526.28;;;7.06;84.24
85545;BME280;75982;52.834;13.846;2024-03-22T00:31:06;101522.19;;;6.98;84.91
85545;BME280;75982;52.834;13.846;2024-03-22T00:33:32;101523.88;;;6.99;84.86
85545;BME280;75982;52.834;13.846;2024-03-22T00:35:58;101511.59;;;7.07;83.97
85545;BME280;75982;52.834;13.846;2024-03-22T00:38:24;101508.81;;;7.14;83.63
85545;BME280;75982;52.834;13.846;2024-03-22T00:40:49;101506.25;;;7.13;83.34
85545;BME280;75982;52.834;13.846;2024-03-22T00:43:15;101497.63;;;7.12;83.96
85545;BME280;75982;52.834;13.846;2024-03-22T00:45:40;101494.00;;;7.19;83.26
85545;BME280;75982;52.834;13.846;2024-03-22T00:48:06;101497.38;;;7.21;83.41
85545;BME280;75982;52.834;13.846;2024-03-22T00:50:32;101502.63;;;7.20;83.41
85545;BME280;75982;52.834;13.846;2024-03-22T00:52:58;101501.75;;;7.21;83.39
85545;BME280;75982;52.834;13.846;2024-03-22T00:55:24;101494.72;;;7.24;83.10
85545;BME280;75982;52.834;13.846;2024-03-22T00:57:49;101497.44;;;7.20;83.37
85545;BME280;75982;52.834;13.846;2024-03-22T01:00:15;101487.16;;;7.17;84.13
85545;BME280;75982;52.834;13.846;2024-03-22T01:02:41;101476.25;;;7.04;83.67
85545;BME280;75982;52.834;13.846;2024-03-22T01:05:07;101475.28;;;7.07;84.50
85545;BME280;75982;52.834;13.846;2024-03-22T01:07:33;101478.66;;;7.10;83.97
85545;BME280;75982;52.834;13.846;2024-03-22T01:09:58;101470.13;;;7.07;84.16
85545;BME280;75982;52.834;13.846;2024-03-22T01:12:24;101464.72;;;7.14;83.81
85545;BME280;75982;52.834;13.846;2024-03-22T01:14:50;101476.97;;;7.09;84.64
85545;BME280;75982;52.834;13.846;2024-03-22T01:17:16;101472.47;;;7.16;84.34
85545;BME280;75982;52.834;13.846;2024-03-22T01:19:41;101471.53;;;7.18;83.68
85545;BME280;75982;52.834;13.846;2024-03-22T01:22:07;101467.22;;;7.19;83.83
85545;BME280;75982;52.834;13.846;2024-03-22T01:24:32;101457.72;;;7.18;83.51
85545;BME280;75982;52.834;13.846;2024-03-22T01:26:58;101455.91;;;7.21;82.89
85545;BME280;75982;52.834;13.846;2024-03-22T01:29:23;101453.38;;;7.18;83.70
85545;BME280;75982;52.834;13.846;2024-03-22T01:31:49;101458.44;;;7.24;83.78
85545;BME280;75982;52.834;13.846;2024-03-22T01:34:15;101456.63;;;7.26;83.73
85545;BME280;75982;52.834;13.846;2024-03-22T01:36:40;101449.91;;;7.19;84.14
85545;BME280;75982;52.834;13.846;2024-03-22T01:39:06;101448.72;;;7.33;82.95
85545;BME280;75982;52.834;13.846;2024-03-22T01:41:32;101441.84;;;7.30;82.93
85545;BME280;75982;52.834;13.846;2024-03-22T01:43:58;101442.22;;;7.16;83.63
85545;BME280;75982;52.834;13.846;2024-03-22T01:46:24;101437.94;;;7.14;83.88
85545;BME280;75982;52.834;13.846;2024-03-22T01:48:50;101436.91;;;7.21;83.84
85545;BME280;75982;52.834;13.846;2024-03-22T01:51:17;101440.22;;;7.26;83.83
85545;BME280;75982;52.834;13.846;2024-03-22T01:53:43;101428.38;;;7.17;84.13
85545;BME280;75982;52.834;13.846;2024-03-22T01:56:09;101428.19;;;7.23;83.99
85545;BME280;75982;52.834;13.846;2024-03-22T01:58:34;101431.88;;;7.15;83.91
85545;BME280;75982;52.834;13.846;2024-03-22T02:01:00;101429.41;;;7.10;85.33
85545;BME280;75982;52.834;13.846;2024-03-22T02:03:26;101426.50;;;7.22;84.64
85545;BME280;75982;52.834;13.846;2024-03-22T02:05:51;101418.59;;;7.27;84.28
85545;BME280;75982;52.834;13.846;2024-03-22T02:08:17;101422.25;;;7.20;83.99
85545;BME280;75982;52.834;13.846;2024-03-22T02:10:43;101419.59;;;7.21;84.79
85545;BME280;75982;52.834;13.846;2024-03-22T02:13:08;101405.88;;;7.18;84.25
85545;BME280;75982;52.834;13.846;2024-03-22T02:15:34;101401.50;;;7.20;84.63
85545;BME280;75982;52.834;13.846;2024-03-22T02:18:00;101404.88;;;7.22;84.58
85545;BME280;75982;52.834;13.846;2024-03-22T02:20:25;101398.91;;;7.20;84.76
85545;BME280;75982;52.834;13.846;2024-03-22T02:22:51;101395.22;;;7.29;84.16
85545;BME280;75982;52.834;13.846;2024-03-22T02:25:16;101399.47;;;7.31;84.52
85545;BME280;75982;52.834;13.846;2024-03-22T02:27:43;101384.84;;;7.29;85.15
85545;BME280;75982;52.834;13.846;2024-03-22T02:30:08;101385.66;;;7.29;84.14
85545;BME280;75982;52.834;13.846;2024-03-22T02:32:34;101387.28;;;7.33;84.69
85545;BME280;75982;52.834;13.846;2024-03-22T02:34:59;101388.78;;;7.42;84.14
85545;BME280;75982;52.834;13.846;2024-03-22T02:37:25;101383.78;;;7.36;84.87
85545;BME280;75982;52.834;13.846;2024-03-22T02:39:51;101384.44;;;7.42;84.55
85545;BME280;75982;52.834;13.846;2024-03-22T02:42:16;101375.41;;;7.26;86.02
85545;BME280;75982;52.834;13.846;2024-03-22T02:44:42;101372.25;;;7.15;86.93
85545;BME280;75982;52.834;13.846;2024-03-22T02:47:09;101359.72;;;7.31;85.53
85545;BME280;75982;52.834;13.846;2024-03-22T02:49:34;101351.06;;;7.30;85.54
85545;BME280;75982;52.834;13.846;2024-03-22T02:52:00;101347.63;;;7.30;86.26
85545;BME280;75982;52.834;13.846;2024-03-22T02:54:25;101344.25;;;7.28;85.37
85545;BME280;75982;52.834;13.846;2024-03-22T02:56:51;101344.34;;;7.24;86.97
85545;BME280;75982;52.834;13.846;2024-03-22T02:59:16;101344.50;;;7.18;87.32
85545;BME280;75982;52.834;13.846;2024-03-22T03:01:42;101339.06;;;7.28;86.77
85545;BME280;75982;52.834;13.846;2024-03-22T03:04:07;101336.41;;;7.29;86.61
85545;BME280;75982;52.834;13.846;2024-03-22T03:06:33;101337.97;;;7.35;86.73
85545;BME280;75982;52.834;13.846;2024-03-22T03:08:58;101328.69;;;7.28;87.62
85545;BME280;75982;52.834;13.846;2024-03-22T03:11:24;101324.44;;;7.25;86.74
85545;BME280;75982;52.834;13.846;2024-03-22T03:13:49;101326.97;;;7.26;86.66
85545;BME280;75982;52.834;13.846;2024-03-22T03:16:15;101321.88;;;7.23;86.94
85545;BME280;75982;52.834;13.846;2024-03-22T03:18:40;101320.16;;;7.24;87.04
85545;BME280;75982;52.834;13.846;2024-03-22T03:21:06;101320.06;;;7.27;86.75
85545;BME280;75982;52.834;13.846;2024-03-22T03:23:32;101313.97;;;7.28;86.64
85545;BME280;75982;52.834;13.846;2024-03-22T03:25:57;101301.94;;;7.25;86.76
85545;BME280;75982;52.834;13.846;2024-03-22T03:28:23;101297.56;;;7.28;86.72
85545;BME280;75982;52.834;13.846;2024-03-22T03:30:48;101286.25;;;7.30;87.31
85545;BME280;75982;52.834;13.846;2024-03-22T03:33:14;101286.31;;;7.29;87.44
85545;BME280;75982;52.834;13.846;2024-03-22T03:35:40;101280.53;;;7.19;86.82
85545;BME280;75982;52.834;13.846;2024-03-22T03:38:05;101283.94;;;7.21;87.50
85545;BME280;75982;52.834;13.846;2024-03-22T03:40:31;101273.50;;;7.22;87.24
85545;BME280;75982;52.834;13.846;2024-03-22T03:42:56;101273.28;;;7.01;88.77
85545;BME280;75982;52.834;13.846;2024-03-22T03:45:22;101274.59;;;7.15;88.27
85545;BME280;75982;52.834;13.846;2024-03-22T03:47:47;101266.59;;;7.23;87.35
85545;BME280;75982;52.834;13.846;2024-03-22T03:50:13;101270.25;;;7.16;86.77
85545;BME280;75982;52.834;13.846;2024-03-22T03:52:38;101265.97;;;7.15;87.68
85545;BME280;75982;52.834;13.846;2024-03-22T03:55:04;101265.78;;;7.21;87.76
85545;BME280;75982;52.834;13.846;2024-03-22T03:57:29;101264.00;;;7.23;87.79
85545;BME280;75982;52.834;13.846;2024-03-22T03:59:55;101262.06;;;7.30;87.57
85545;BME280;75982;52.834;13.846;2024-03-22T04:02:20;101250.00;;;7.29;87.52
85545;BME280;75982;52.834;13.846;2024-03-22T04:04:46;101248.25;;;7.29;87.96
85545;BME280;75982;52.834;13.846;2024-03-22T04:07:11;101239.78;;;7.24;87.16
85545;BME280;75982;52.834;13.846;2024-03-22T04:09:37;101224.44;;;7.16;88.43
85545;BME280;75982;52.834;13.846;2024-03-22T04:12:03;101217.94;;;7.31;87.55
85545;BME280;75982;52.834;13.846;2024-03-22T04:14:28;101214.72;;;7.23;88.03
85545;BME280;75982;52.834;13.846;2024-03-22T04:16:54;101207.41;;;7.08;89.12
85545;BME280;75982;52.834;13.846;2024-03-22T04:19:20;101221.53;;;7.27;88.30
85545;BME280;75982;52.834;13.846;2024-03-22T04:21:46;101231.09;;;7.25;88.22
85545;BME280;75982;52.834;13.846;2024-03-22T04:24:12;101226.44;;;7.36;87.10
85545;BME280;75982;52.834;13.846;2024-03-22T04:26:37;101230.72;;;7.37;87.62
85545;BME280;75982;52.834;13.846;2024-03-22T04:29:03;101228.84;;;7.42;87.19
85545;BME280;75982;52.834;13.846;2024-03-22T04:31:29;101213.66;;;7.30;88.32
85545;BME280;75982;52.834;13.846;2024-03-22T04:33:54;101211.13;;;7.29;87.94
85545;BME280;75982;52.834;13.846;2024-03-22T04:36:20;101210.91;;;7.35;87.99
85545;BME280;75982;52.834;13.846;2024-03-22T04:38:45;101204.94;;;7.33;87.88
85545;BME280;75982;52.834;13.846;2024-03-22T04:41:11;101194.09;;;7.20;88.34
85545;BME280;75982;52.834;13.846;2024-03-22T04:43:37;101202.25;;;7.36;87.81
85545;BME280;75982;52.834;13.846;2024-03-22T04:46:03;101195.22;;;7.39;87.62
85545;BME280;75982;52.834;13.846;2024-03-22T04:48:28;101195.50;;;7.30;87.36
85545;BME280;75982;52.834;13.846;2024-03-22T04:50:54;101186.06;;;7.28;87.72
85545;BME280;75982;52.834;13.846;2024-03-22T04:53:20;101188.44;;;7.35;87.73
85545;BME280;75982;52.834;13.846;2024-03-22T04:55:46;101180.44;;;7.41;86.87
85545;BME280;75982;52.834;13.846;2024-03-22T04:58:16;101180.31;;;7.46;86.23
85545;BME280;75982;52.834;13.846;2024-03-22T05:00:42;101179.50;;;7.44;87.16
85545;BME280;75982;52.834;13.846;2024-03-22T05:03:08;101176.16;;;7.40;86.61
85545;BME280;75982;52.834;13.846;2024-03-22T05:05:34;101187.13;;;7.48;86.72
85545;BME280;75982;52.834;13.846;2024-03-22T05:08:00;101183.69;;;7.48;86.27
85545;BME280;75982;52.834;13.846;2024-03-22T05:10:25;101175.81;;;7.51;85.97
85545;BME280;75982;52.834;13.846;2024-03-22T05:12:51;101174.13;;;7.50;86.42
85545;BME280;75982;52.834;13.846;2024-03-22T05:15:16;101166.44;;;7.47;85.97
85545;BME280;75982;52.834;13.846;2024-03-22T05:17:42;101167.22;;;7.49;85.93
85545;BME280;75982;52.834;13.846;2024-03-22T05:20:08;101155.00;;;7.52;86.20
85545;BME280;75982;52.834;13.846;2024-03-22T05:22:33;101156.22;;;7.42;86.04
85545;BME280;75982;52.834;13.846;2024-03-22T05:24:59;101153.72;;;7.39;86.83
85545;BME280;75982;52.834;13.846;2024-03-22T05:27:24;101151.53;;;7.53;86.13
85545;BME280;75982;52.834;13.846;2024-03-22T05:29:50;101145.34;;;7.57;86.04
85545;BME280;75982;52.834;13.846;2024-03-22T05:32:15;101147.28;;;7.51;85.61
85545;BME280;75982;52.834;13.846;2024-03-22T05:34:41;101145.28;;;7.59;85.26
85545;BME280;75982;52.834;13.846;2024-03-22T05:37:06;101144.88;;;7.45;86.51
85545;BME280;75982;52.834;13.846;2024-03-22T05:39:32;101141.84;;;7.58;85.86
85545;BME280;75982;52.834;13.846;2024-03-22T05:41:57;101137.59;;;7.56;85.63
85545;BME280;75982;52.834;13.846;2024-03-22T05:44:23;101129.50;;;7.65;85.52
85545;BME280;75982;52.834;13.846;2024-03-22T05:46:49;101137.19;;;7.68;84.13
85545;BME280;75982;52.834;13.846;2024-03-22T05:49:15;101112.13;;;7.67;84.89
85545;BME280;75982;52.834;13.846;2024-03-22T05:51:41;101115.22;;;7.78;84.05
85545;BME280;75982;52.834;13.846;2024-03-22T05:54:06;101111.56;;;7.84;84.65
85545;BME280;75982;52.834;13.846;2024-03-22T05:56:32;101107.16;;;7.86;83.91
85545;BME280;75982;52.834;13.846;2024-03-22T05:58:57;101102.22;;;7.78;84.41
85545;BME280;75982;52.834;13.846;2024-03-22T06:01:23;101111.41;;;7.88;84.28
85545;BME280;75982;52.834;13.846;2024-03-22T06:03:48;101114.59;;;7.96;83.97
85545;BME280;75982;52.834;13.846;2024-03-22T06:06:14;101109.91;;;8.06;83.92
85545;BME280;75982;52.834;13.846;2024-03-22T06:08:39;101106.41;;;8.07;83.17
85545;BME280;75982;52.834;13.846;2024-03-22T06:11:07;101105.25;;;8.15;83.24
85545;BME280;75982;52.834;13.846;2024-03-22T06:13:33;101102.97;;;8.06;83.21
85545;BME280;75982;52.834;13.846;2024-03-22T06:15:58;101089.69;;;8.15;83.46
85545;BME280;75982;52.834;13.846;2024-03-22T06:18:24;101085.09;;;8.22;82.97
85545;BME280;75982;52.834;13.846;2024-03-22T06:20:49;101077.22;;;8.23;82.46
85545;BME280;75982;52.834;13.846;2024-03-22T06:23:15;101077.84;;;8.32;82.07
85545;BME280;75982;52.834;13.846;2024-03-22T06:25:40;101084.72;;;8.33;82.20
85545;BME280;75982;52.834;13.846;2024-03-22T06:28:06;101074.91;;;8.41;81.60
85545;BME280;75982;52.834;13.846;2024-03-22T06:30:31;101075.56;;;8.22;81.55
85545;BME280;75982;52.834;13.846;2024-03-22T06:32:57;101064.00;;;8.31;82.10
85545;BME280;75982;52.834;13.846;2024-03-22T06:35:23;101068.44;;;8.28;81.93
85545;BME280;75982;52.834;13.846;2024-03-22T06:37:49;101067.84;;;8.44;81.50
85545;BME280;75982;52.834;13.846;2024-03-22T06:40:14;101062.03;;;8.38;81.81
85545;BME280;75982;52.834;13.846;2024-03-22T06:42:40;101057.00;;;8.33;81.70
85545;BME280;75982;52.834;13.846;2024-03-22T06:45:06;101054.38;;;8.56;80.11
85545;BME280;75982;52.834;13.846;2024-03-22T06:47:32;101052.38;;;8.41;81.31
85545;BME280;75982;52.834;13.846;2024-03-22T06:49:58;101058.94;;;8.50;81.04
85545;BME280;75982;52.834;13.846;2024-03-22T06:52:24;101055.25;;;8.57;80.47
85545;BME280;75982;52.834;13.846;2024-03-22T06:54:49;101041.94;;;8.64;80.61
85545;BME280;75982;52.834;13.846;2024-03-22T06:57:15;101050.03;;;8.79;79.88
85545;BME280;75982;52.834;13.846;2024-03-22T06:59:40;101043.16;;;8.78;78.88
85545;BME280;75982;52.834;13.846;2024-03-22T07:02:06;101045.25;;;8.90;78.99
85545;BME280;75982;52.834;13.846;2024-03-22T07:04:31;101040.31;;;8.84;79.94
85545;BME280;75982;52.834;13.846;2024-03-22T07:06:57;101032.44;;;8.85;79.96
85545;BME280;75982;52.834;13.846;2024-03-22T07:09:23;101020.88;;;8.92;79.27
85545;BME280;75982;52.834;13.846;2024-03-22T07:11:48;101017.75;;;9.06;79.05
85545;BME280;75982;52.834;13.846;2024-03-22T07:14:14;101028.84;;;9.09;78.37
85545;BME280;75982;52.834;13.846;2024-03-22T07:16:39;101022.81;;;9.09;78.41
85545;BME280;75982;52.834;13.846;2024-03-22T07:19:05;101022.31;;;9.21;77.82
85545;BME280;75982;52.834;13.846;2024-03-22T07:21:30;101024.09;;;9.19;77.40
85545;BME280;75982;52.834;13.846;2024-03-22T07:23:56;101026.66;;;9.21;77.25
85545;BME280;75982;52.834;13.846;2024-03-22T07:26:22;101030.06;;;9.01;77.98
85545;BME280;75982;52.834;13.846;2024-03-22T07:28:47;101032.03;;;9.16;78.01
85545;BME280;75982;52.834;13.846;2024-03-22T07:31:13;101028.91;;;9.08;78.36
85545;BME280;75982;52.834;13.846;2024-03-22T07:33:39;101043.53;;;9.10;78.17
85545;BME280;75982;52.834;13.846;2024-03-22T07:36:05;101050.06;;;9.21;77.76
85545;BME280;75982;52.834;13.846;2024-03-22T07:38:31;101041.59;;;9.15;77.90
85545;BME280;75982;52.834;13.846;2024-03-22T07:40:57;101054.72;;;9.12;78.74
85545;BME280;75982;52.834;13.846;2024-03-22T07:43:22;101045.72;;;9.21;79.33
85545;BME280;75982;52.834;13.846;2024-03-22T07:45:48;101044.72;;;9.24;80.39
85545;BME280;75982;52.834;13.846;2024-03-22T07:48:14;101047.38;;;9.22;80.22
85545;BME280;75982;52.834;13.846;2024-03-22T07:50:40;101053.75;;;9.15;81.31
85545;BME280;75982;52.834;13.846;2024-03-22T07:53:05;101047.88;;;9.32;79.40
85545;BME280;75982;52.834;13.846;2024-03-22T07:55:31;101045.13;;;9.35;78.92
85545;BME280;75982;52.834;13.846;2024-03-22T07:57:57;101038.50;;;9.28;80.02
85545;BME280;75982;52.834;13.846;2024-03-22T08:00:22;101027.28;;;9.26;81.13
85545;BME280;75982;52.834;13.846;2024-03-22T08:02:48;101028.22;;;9.45;80.25
85545;BME280;75982;52.834;13.846;2024-03-22T08:05:13;101017.41;;;9.54;79.96
85545;BME280;75982;52.834;13.846;2024-03-22T08:07:39;101018.91;;;9.59;79.36
85545;BME280;75982;52.834;13.846;2024-03-22T08:10:05;101015.19;;;9.65;79.07
85545;BME280;75982;52.834;13.846;2024-03-22T08:12:30;101017.41;;;9.74;77.88
85545;BME280;75982;52.834;13.846;2024-03-22T08:14:56;101006.88;;;9.57;79.92
85545;BME280;75982;52.834;13.846;2024-03-22T08:17:21;101010.22;;;9.79;78.14
85545;BME280;75982;52.834;13.846;2024-03-22T08:19:47;101017.53;;;9.71;78.76
85545;BME280;75982;52.834;13.846;2024-03-22T08:22:12;101008.19;;;9.86;77.29
85545;BME280;75982;52.834;13.846;2024-03-22T08:24:38;101009.13;;;9.85;77.27
85545;BME280;75982;52.834;13.846;2024-03-22T08:27:04;100992.06;;;9.59;78.70
85545;BME280;75982;52.834;13.846;2024-03-22T08:29:29;100980.72;;;9.79;78.36
85545;BME280;75982;52.834;13.846;2024-03-22T08:31:55;100972.31;;;9.92;77.56
85545;BME280;75982;52.834;13.846;2024-03-22T08:34:21;100973.53;;;9.85;77.68
85545;BME280;75982;52.834;13.846;2024-03-22T08:36:47;100959.22;;;9.94;77.12
85545;BME280;75982;52.834;13.846;2024-03-22T08:39:12;100971.28;;;9.96;76.93
85545;BME280;75982;52.834;13.846;2024-03-22T08:41:38;100971.69;;;10.06;76.47
85545;BME280;75982;52.834;13.846;2024-03-22T08:44:04;100973.53;;;10.04;76.81
85545;BME280;75982;52.834;13.846;2024-03-22T08:46:29;100969.28;;;10.01;77.57
85545;BME280;75982;52.834;13.846;2024-03-22T08:48:55;100969.56;;;10.14;77.13
85545;BME280;75982;52.834;13.846;2024-03-22T08:51:21;100959.94;;;10.16;76.90
85545;BME280;75982;52.834;13.846;2024-03-22T08:53:47;100959.09;;;10.34;76.87
85545;BME280;75982;52.834;13.846;2024-03-22T08:56:12;100950.84;;;10.06;78.02
85545;BME280;75982;52.834;13.846;2024-03-22T08:58:38;100938.88;;;10.39;77.30
85545;BME280;75982;52.834;13.846;2024-03-22T09:01:03;100930.09;;;10.59;75.70
85545;BME280;75982;52.834;13.846;2024-03-22T09:03:29;100924.44;;;10.68;75.06
85545;BME280;75982;52.834;13.846;2024-03-22T09:05:54;100924.97;;;10.75;74.85
85545;BME280;75982;52.834;13.846;2024-03-22T09:08:20;100916.22;;;10.76;74.76
85545;BME280;75982;52.834;13.846;2024-03-22T09:10:46;100911.53;;;10.99;73.91
85545;BME280;75982;52.834;13.846;2024-03-22T09:13:11;100904.94;;;11.09;73.96
85545;BME280;75982;52.834;13.846;2024-03-22T09:15:37;100914.78;;;11.37;72.42
85545;BME280;75982;52.834;13.846;2024-03-22T09:18:02;100905.13;;;11.39;73.41
85545;BME280;75982;52.834;13.846;2024-03-22T09:20:28;100901.97;;;11.66;72.65
85545;BME280;75982;52.834;13.846;2024-03-22T09:22:53;100901.44;;;11.59;72.24
85545;BME280;75982;52.834;13.846;2024-03-22T09:25:19;100902.84;;;11.82;71.68
85545;BME280;75982;52.834;13.846;2024-03-22T09:27:44;100897.22;;;11.89;70.51
85545;BME280;75982;52.834;13.846;2024-03-22T09:30:10;100897.53;;;11.83;70.20
85545;BME280;75982;52.834;13.846;2024-03-22T09:32:36;100891.28;;;11.70;69.60
85545;BME280;75982;52.834;13.846;2024-03-22T09:35:01;100877.84;;;11.78;70.63
85545;BME280;75982;52.834;13.846;2024-03-22T09:37:27;100878.34;;;11.84;70.43
85545;BME280;75982;52.834;13.846;2024-03-22T09:39:52;100869.53;;;12.01;69.86
85545;BME280;75982;52.834;13.846;2024-03-22T09:42:18;100871.75;;;11.93;70.20
85545;BME280;75982;52.834;13.846;2024-03-22T09:44:48;100885.97;;;11.72;70.15
85545;BME280;75982;52.834;13.846;2024-03-22T09:47:20;100878.81;;;11.75;70.60
85545;BME280;75982;52.834;13.846;2024-03-22T09:49:46;100889.31;;;11.58;71.10
85545;BME280;75982;52.834;13.846;2024-03-22T09:52:15;100888.91;;;11.66;70.74
85545;BME280;75982;52.834;13.846;2024-03-22T09:54:41;100872.47;;;11.64;70.51
85545;BME280;75982;52.834;13.846;2024-03-22T09:57:16;100874.94;;;11.67;70.46
85545;BME280;75982;52.834;13.846;2024-03-22T09:59:43;100868.47;;;11.74;70.54
85545;BME280;75982;52.834;13.846;2024-03-22T10:02:11;100865.81;;;11.58;70.80
85545;BME280;75982;52.834;13.846;2024-03-22T10:04:36;100864.13;;;11.57;72.35
85545;BME280;75982;52.834;13.846;2024-03-22T10:07:02;100864.09;;;11.74;70.92
85545;BME280;75982;52.834;13.846;2024-03-22T10:09:29;100855.50;;;11.72;70.76
85545;BME280;75982;52.834;13.846;2024-03-22T10:11:56;100853.91;;;11.85;70.45
85545;BME280;75982;52.834;13.846;2024-03-22T10:14:21;100852.53;;;12.10;70.16
85545;BME280;75982;52.834;13.846;2024-03-22T10:16:47;100847.44;;;12.22;69.33
85545;BME280;75982;52.834;13.846;2024-03-22T10:19:13;100849.03;;;12.54;69.40
85545;BME280;75982;52.834;13.846;2024-03-22T10:21:38;100851.94;;;12.80;68.53
85545;BME280;75982;52.834;13.846;2024-03-22T10:24:04;100833.25;;;13.00;68.66
85545;BME280;75982;52.834;13.846;2024-03-22T10:26:33;100831.66;;;12.97;67.93
85545;BME280;75982;52.834;13.846;2024-03-22T10:28:58;100821.03;;;13.15;67.22
85545;BME280;75982;52.834;13.846;2024-03-22T10:31:24;100825.25;;;13.17;67.68
85545;BME280;75982;52.834;13.846;2024-03-22T10:33:50;100828.00;;;13.00;66.71
85545;BME280;75982;52.834;13.846;2024-03-22T10:36:17;100831.13;;;13.07;66.98
85545;BME280;75982;52.834;13.846;2024-03-22T10:38:43;100833.25;;;13.00;66.57
85545;BME280;75982;52.834;13.846;2024-03-22T10:41:09;100827.28;;;13.26;66.22
85545;BME280;75982;52.834;13.846;2024-03-22T10:43:35;100824.41;;;13.31;65.03
85545;BME280;75982;52.834;13.846;2024-03-22T10:46:02;100820.44;;;13.52;66.08
85545;BME280;75982;52.834;13.846;2024-03-22T10:48:30;100805.72;;;13.64;65.83
85545;BME280;75982;52.834;13.846;2024-03-22T10:50:59;100801.63;;;14.13;65.85
85545;BME280;75982;52.834;13.846;2024-03-22T10:53:25;100798.28;;;14.24;63.52
85545;BME280;75982;52.834;13.846;2024-03-22T10:55:52;100799.84;;;14.14;64.08
85545;BME280;75982;52.834;13.846;2024-03-22T10:58:23;100791.84;;;14.03;64.07
85545;BME280;75982;52.834;13.846;2024-03-22T11:00:56;100795.25;;;14.17;63.60
85545;BME280;75982;52.834;13.846;2024-03-22T11:03:23;100793.31;;;14.07;63.03
85545;BME280;75982;52.834;13.846;2024-03-22T11:05:55;100801.91;;;14.09;63.62
85545;BME280;75982;52.834;13.846;2024-03-22T11:08:30;100802.28;;;13.90;63.84
85545;BME280;75982;52.834;13.846;2024-03-22T11:10:56;100795.97;;;13.80;62.52
85545;BME280;75982;52.834;13.846;2024-03-22T11:13:22;100783.63;;;13.68;63.26
85545;BME280;75982;52.834;13.846;2024-03-22T11:15:51;100794.72;;;13.59;63.84
85545;BME280;75982;52.834;13.846;2024-03-22T11:18:17;100787.78;;;13.58;64.43
85545;BME280;75982;52.834;13.846;2024-03-22T11:20:43;100782.97;;;13.37;65.08
85545;BME280;75982;52.834;13.846;2024-03-22T11:23:09;100762.38;;;13.45;64.38
85545;BME280;75982;52.834;13.846;2024-03-22T11:25:35;100766.91;;;13.29;64.08
85545;BME280;75982;52.834;13.846;2024-03-22T11:28:00;100762.13;;;13.08;63.93
85545;BME280;75982;52.834;13.846;2024-03-22T11:30:30;100755.59;;;13.15;63.50
85545;BME280;75982;52.834;13.846;2024-03-22T11:32:57;100761.47;;;12.90;66.49
85545;BME280;75982;52.834;13.846;2024-03-22T11:35:22;100754.00;;;12.98;65.29
85545;BME280;75982;52.834;13.846;2024-03-22T11:37:49;100754.09;;;12.96;66.66
85545;BME280;75982;52.834;13.846;2024-03-22T11:40:15;100766.06;;;12.72;68.60
85545;BME280;75982;52.834;13.846;2024-03-22T11:42:46;100765.59;;;12.80;68.88
85545;BME280;75982;52.834;13.846;2024-03-22T11:45:14;100754.19;;;12.52;70.91
85545;BME280;75982;52.834;13.846;2024-03-22T11:47:40;100757.25;;;12.59;70.22
85545;BME280;75982;52.834;13.846;2024-03-22T11:50:06;100760.72;;;12.60;69.68
85545;BME280;75982;52.834;13.846;2024-03-22T11:52:31;100755.50;;;12.74;71.39
85545;BME280;75982;52.834;13.846;2024-03-22T11:54:57;100742.41;;;12.74;69.75
85545;BME280;75982;52.834;13.846;2024-03-22T11:57:23;100745.41;;;12.68;72.24
85545;BME280;75982;52.834;13.846;2024-03-22T11:59:50;100728.41;;;12.89;70.63
85545;BME280;75982;52.834;13.846;2024-03-22T12:02:17;100727.84;;;12.98;71.28
85545;BME280;75982;52.834;13.846;2024-03-22T12:04:45;100729.69;;;12.96;69.88
85545;BME280;75982;52.834;13.846;2024-03-22T12:07:12;100725.47;;;13.08;69.36
85545;BME280;75982;52.834;13.846;2024-03-22T12:09:38;100705.94;;;13.27;69.40
85545;BME280;75982;52.834;13.846;2024-03-22T12:12:06;100712.75;;;13.44;70.13
85545;BME280;75982;52.834;13.846;2024-03-22T12:14:33;100717.78;;;13.74;68.66
85545;BME280;75982;52.834;13.846;2024-03-22T12:16:58;100705.56;;;13.60;67.84
85545;BME280;75982;52.834;13.846;2024-03-22T12:19:24;100704.28;;;13.53;66.84
85545;BME280;75982;52.834;13.846;2024-03-22T12:21:50;100700.91;;;13.24;68.52
85545;BME280;75982;52.834;13.846;2024-03-22T12:24:15;100701.28;;;13.32;67.41
85545;BME280;75982;52.834;13.846;2024-03-22T12:26:41;100700.28;;;13.21;68.50
85545;BME280;75982;52.834;13.846;2024-03-22T12:29:06;100692.22;;;13.24;67.15
85545;BME280;75982;52.834;13.846;2024-03-22T12:31:32;100695.97;;;13.20;68.52
85545;BME280;75982;52.834;13.846;2024-03-22T12:33:57;100693.75;;;13.14;69.05
85545;BME280;75982;52.834;13.846;2024-03-22T12:36:23;100681.41;;;13.01;68.72
85545;BME280;75982;52.834;13.846;2024-03-22T12:38:48;100685.16;;;12.83;69.60
85545;BME280;75982;52.834;13.846;2024-03-22T12:41:14;100682.53;;;12.69;69.75